sensor_id;sensor_type;location;lat;lon;timestamp;temperature;humidity
32895;DHT22;19251;49.484;8.260;2023-10-19T00:01:31;14.90;26.30
32895;DHT22;19251;49.484;8.260;2023-10-19T00:06:36;15.00;26.40
32895;DHT22;19251;49.484;8.260;2023-10-19T00:11:38;14.90;26.60
32895;DHT22;19251;49.484;8.260;2023-10-19T00:16:43;14.90;26.60
32895;DHT22;19251;49.484;8.260;2023-10-19T00:27:10;14.90;26.80
32895;DHT22;19251;49.484;8.260;2023-10-19T00:32:20;14.90;27.00
32895;DHT22;19251;49.484;8.260;2023-10-19T00:37:26;14.90;27.10
32895;DHT22;19251;49.484;8.260;2023-10-19T00:42:29;14.90;27.10
32895;DHT22;19251;49.484;8.260;2023-10-19T00:47:32;14.90;27.20
32895;DHT22;19251;49.484;8.260;2023-10-19T00:52:42;14.90;27.20
32895;DHT22;19251;49.484;8.260;2023-10-19T00:57:54;14.90;27.20
32895;DHT22;19251;49.484;8.260;2023-10-19T01:02:59;14.90;27.50
32895;DHT22;19251;49.484;8.260;2023-10-19T01:08:04;14.80;27.30
32895;DHT22;19251;49.484;8.260;2023-10-19T01:13:24;14.90;27.70
32895;DHT22;19251;49.484;8.260;2023-10-19T01:18:30;14.90;27.80
32895;DHT22;19251;49.484;8.260;2023-10-19T01:23:34;14.80;27.70
32895;DHT22;19251;49.484;8.260;2023-10-19T01:28:37;14.90;27.60
32895;DHT22;19251;49.484;8.260;2023-10-19T01:33:44;14.90;27.70
32895;DHT22;19251;49.484;8.260;2023-10-19T01:38:46;14.90;27.90
32895;DHT22;19251;49.484;8.260;2023-10-19T01:43:51;14.80;28.00
32895;DHT22;19251;49.484;8.260;2023-10-19T01:48:56;14.90;28.00
32895;DHT22;19251;49.484;8.260;2023-10-19T01:54:00;14.90;28.10
32895;DHT22;19251;49.484;8.260;2023-10-19T01:59:05;15.00;29.00
32895;DHT22;19251;49.484;8.260;2023-10-19T02:04:10;14.60;29.30
32895;DHT22;19251;49.484;8.260;2023-10-19T02:24:25;15.10;28.20
32895;DHT22;19251;49.484;8.260;2023-10-19T02:29:28;15.10;28.30
32895;DHT22;19251;49.484;8.260;2023-10-19T02:34:30;15.40;29.30
32895;DHT22;19251;49.484;8.260;2023-10-19T02:39:33;15.10;28.90
32895;DHT22;19251;49.484;8.260;2023-10-19T02:44:36;15.10;28.30
32895;DHT22;19251;49.484;8.260;2023-10-19T02:49:39;15.10;28.30
32895;DHT22;19251;49.484;8.260;2023-10-19T02:59:47;15.00;28.40
32895;DHT22;19251;49.484;8.260;2023-10-19T03:04:49;15.00;28.50
32895;DHT22;19251;49.484;8.260;2023-10-19T03:09:52;15.00;28.60
32895;DHT22;19251;49.484;8.260;2023-10-19T03:14:59;15.00;28.60
32895;DHT22;19251;49.484;8.260;2023-10-19T03:20:02;15.10;28.70
32895;DHT22;19251;49.484;8.260;2023-10-19T03:25:08;15.10;28.70
32895;DHT22;19251;49.484;8.260;2023-10-19T03:30:28;15.10;28.60
32895;DHT22;19251;49.484;8.260;2023-10-19T03:50:50;15.00;28.50
32895;DHT22;19251;49.484;8.260;2023-10-19T03:55:54;15.00;28.70
32895;DHT22;19251;49.484;8.260;2023-10-19T04:06:07;15.00;29.30
32895;DHT22;19251;49.484;8.260;2023-10-19T04:11:15;15.00;29.20
32895;DHT22;19251;49.484;8.260;2023-10-19T04:16:23;15.00;29.20
32895;DHT22;19251;49.484;8.260;2023-10-19T04:21:26;15.00;29.40
32895;DHT22;19251;49.484;8.260;2023-10-19T04:26:28;15.00;29.50
32895;DHT22;19251;49.484;8.260;2023-10-19T04:31:30;15.40;31.70
32895;DHT22;19251;49.484;8.260;2023-10-19T04:36:33;15.30;31.40
32895;DHT22;19251;49.484;8.260;2023-10-19T04:41:36;15.30;30.00
32895;DHT22;19251;49.484;8.260;2023-10-19T04:46:38;15.10;31.10
32895;DHT22;19251;49.484;8.260;2023-10-19T05:01:47;15.20;32.40
32895;DHT22;19251;49.484;8.260;2023-10-19T05:06:52;15.20;30.50
32895;DHT22;19251;49.484;8.260;2023-10-19T05:16:57;15.30;30.40
32895;DHT22;19251;49.484;8.260;2023-10-19T05:22:00;15.20;30.90
32895;DHT22;19251;49.484;8.260;2023-10-19T05:27:03;15.40;30.20
32895;DHT22;19251;49.484;8.260;2023-10-19T05:32:05;15.60;30.90
32895;DHT22;19251;49.484;8.260;2023-10-19T05:37:08;15.40;30.20
32895;DHT22;19251;49.484;8.260;2023-10-19T05:42:11;15.40;30.00
32895;DHT22;19251;49.484;8.260;2023-10-19T05:47:13;15.40;30.40
32895;DHT22;19251;49.484;8.260;2023-10-19T05:57:18;15.60;32.60
32895;DHT22;19251;49.484;8.260;2023-10-19T06:02:20;15.20;31.90
32895;DHT22;19251;49.484;8.260;2023-10-19T06:07:34;15.50;32.00
32895;DHT22;19251;49.484;8.260;2023-10-19T06:17:39;15.60;30.10
32895;DHT22;19251;49.484;8.260;2023-10-19T06:27:45;15.60;29.90
32895;DHT22;19251;49.484;8.260;2023-10-19T06:32:50;15.40;32.50
32895;DHT22;19251;49.484;8.260;2023-10-19T06:37:54;15.90;32.40
32895;DHT22;19251;49.484;8.260;2023-10-19T06:42:58;15.80;33.60
32895;DHT22;19251;49.484;8.260;2023-10-19T06:48:00;15.70;30.70
32895;DHT22;19251;49.484;8.260;2023-10-19T06:53:03;15.80;30.20
32895;DHT22;19251;49.484;8.260;2023-10-19T06:58:07;15.80;30.40
32895;DHT22;19251;49.484;8.260;2023-10-19T07:03:11;15.90;29.90
32895;DHT22;19251;49.484;8.260;2023-10-19T07:08:13;16.00;30.00
32895;DHT22;19251;49.484;8.260;2023-10-19T07:13:16;16.00;30.00
32895;DHT22;19251;49.484;8.260;2023-10-19T07:18:18;16.10;30.90
32895;DHT22;19251;49.484;8.260;2023-10-19T07:23:20;15.80;30.40
32895;DHT22;19251;49.484;8.260;2023-10-19T07:33:32;16.20;31.10
32895;DHT22;19251;49.484;8.260;2023-10-19T07:38:36;16.10;31.30
32895;DHT22;19251;49.484;8.260;2023-10-19T07:48:43;16.60;30.70
32895;DHT22;19251;49.484;8.260;2023-10-19T07:53:45;16.40;29.90
32895;DHT22;19251;49.484;8.260;2023-10-19T08:03:50;16.50;29.70
32895;DHT22;19251;49.484;8.260;2023-10-19T08:18:59;16.60;29.90
32895;DHT22;19251;49.484;8.260;2023-10-19T08:24:02;16.70;29.80
32895;DHT22;19251;49.484;8.260;2023-10-19T08:29:06;16.80;29.80
32895;DHT22;19251;49.484;8.260;2023-10-19T08:39:17;17.00;29.80
32895;DHT22;19251;49.484;8.260;2023-10-19T08:49:23;17.10;29.70
32895;DHT22;19251;49.484;8.260;2023-10-19T08:54:25;17.30;29.80
32895;DHT22;19251;49.484;8.260;2023-10-19T08:59:27;17.30;29.70
32895;DHT22;19251;49.484;8.260;2023-10-19T09:09:33;16.50;28.70
32895;DHT22;19251;49.484;8.260;2023-10-19T09:14:36;17.80;29.40
32895;DHT22;19251;49.484;8.260;2023-10-19T09:19:44;17.90;29.30
32895;DHT22;19251;49.484;8.260;2023-10-19T09:29:55;18.20;29.20
32895;DHT22;19251;49.484;8.260;2023-10-19T09:34:57;18.40;30.60
32895;DHT22;19251;49.484;8.260;2023-10-19T09:40:00;18.50;29.40
32895;DHT22;19251;49.484;8.260;2023-10-19T09:45:04;18.50;30.50
32895;DHT22;19251;49.484;8.260;2023-10-19T09:55:19;18.80;28.10
32895;DHT22;19251;49.484;8.260;2023-10-19T10:00:30;18.70;28.40
32895;DHT22;19251;49.484;8.260;2023-10-19T10:10:49;18.80;28.70
32895;DHT22;19251;49.484;8.260;2023-10-19T10:15:53;18.90;27.90
32895;DHT22;19251;49.484;8.260;2023-10-19T10:21:12;18.90;28.00
32895;DHT22;19251;49.484;8.260;2023-10-19T10:26:23;18.90;28.00
32895;DHT22;19251;49.484;8.260;2023-10-19T10:36:57;19.10;29.10
32895;DHT22;19251;49.484;8.260;2023-10-19T10:42:03;18.90;28.60
32895;DHT22;19251;49.484;8.260;2023-10-19T10:47:11;19.00;28.40
32895;DHT22;19251;49.484;8.260;2023-10-19T10:52:23;19.10;28.50
32895;DHT22;19251;49.484;8.260;2023-10-19T10:57:33;18.90;27.60
32895;DHT22;19251;49.484;8.260;2023-10-19T11:02:36;18.70;27.70
32895;DHT22;19251;49.484;8.260;2023-10-19T11:08:02;18.70;27.50
32895;DHT22;19251;49.484;8.260;2023-10-19T11:13:09;18.70;27.80
32895;DHT22;19251;49.484;8.260;2023-10-19T11:18:11;18.70;27.80
32895;DHT22;19251;49.484;8.260;2023-10-19T11:23:13;18.80;28.10
32895;DHT22;19251;49.484;8.260;2023-10-19T11:28:18;18.80;28.00
32895;DHT22;19251;49.484;8.260;2023-10-19T11:38:26;18.80;27.90
32895;DHT22;19251;49.484;8.260;2023-10-19T11:43:28;18.80;27.90
32895;DHT22;19251;49.484;8.260;2023-10-19T11:48:35;18.80;27.60
32895;DHT22;19251;49.484;8.260;2023-10-19T11:53:38;18.90;27.80
32895;DHT22;19251;49.484;8.260;2023-10-19T11:58:40;18.80;27.70
32895;DHT22;19251;49.484;8.260;2023-10-19T12:03:45;18.80;27.60
32895;DHT22;19251;49.484;8.260;2023-10-19T12:08:51;18.80;27.60
32895;DHT22;19251;49.484;8.260;2023-10-19T12:13:53;18.80;27.70
32895;DHT22;19251;49.484;8.260;2023-10-19T12:18:56;18.80;27.70
32895;DHT22;19251;49.484;8.260;2023-10-19T12:23:58;18.80;27.80
32895;DHT22;19251;49.484;8.260;2023-10-19T12:34:09;18.70;28.10
32895;DHT22;19251;49.484;8.260;2023-10-19T12:39:14;18.70;28.20
32895;DHT22;19251;49.484;8.260;2023-10-19T12:44:36;18.70;28.40
32895;DHT22;19251;49.484;8.260;2023-10-19T12:49:42;18.80;28.70
32895;DHT22;19251;49.484;8.260;2023-10-19T12:59:50;19.00;28.40
32895;DHT22;19251;49.484;8.260;2023-10-19T13:04:52;19.10;28.50
32895;DHT22;19251;49.484;8.260;2023-10-19T13:09:54;19.10;28.50
32895;DHT22;19251;49.484;8.260;2023-10-19T13:14:57;19.20;28.70
32895;DHT22;19251;49.484;8.260;2023-10-19T13:20:00;19.20;28.80
32895;DHT22;19251;49.484;8.260;2023-10-19T13:25:03;19.30;28.70
32895;DHT22;19251;49.484;8.260;2023-10-19T13:30:06;19.40;28.70
32895;DHT22;19251;49.484;8.260;2023-10-19T13:35:08;19.40;28.60
32895;DHT22;19251;49.484;8.260;2023-10-19T13:40:11;19.40;28.60
32895;DHT22;19251;49.484;8.260;2023-10-19T13:45:13;19.40;28.60
32895;DHT22;19251;49.484;8.260;2023-10-19T13:50:16;19.40;28.70
32895;DHT22;19251;49.484;8.260;2023-10-19T13:55:20;19.40;28.90
32895;DHT22;19251;49.484;8.260;2023-10-19T14:00:24;19.40;28.80
32895;DHT22;19251;49.484;8.260;2023-10-19T14:05:40;19.40;28.70
32895;DHT22;19251;49.484;8.260;2023-10-19T14:10:44;19.40;29.00
32895;DHT22;19251;49.484;8.260;2023-10-19T14:15:47;19.40;29.00
32895;DHT22;19251;49.484;8.260;2023-10-19T14:20:49;19.50;29.20
32895;DHT22;19251;49.484;8.260;2023-10-19T14:25:51;19.50;29.40
32895;DHT22;19251;49.484;8.260;2023-10-19T14:35:56;19.40;29.20
32895;DHT22;19251;49.484;8.260;2023-10-19T14:40:58;19.50;29.50
32895;DHT22;19251;49.484;8.260;2023-10-19T14:46:01;19.60;29.90
32895;DHT22;19251;49.484;8.260;2023-10-19T14:51:04;19.80;29.80
32895;DHT22;19251;49.484;8.260;2023-10-19T14:56:07;19.90;29.80
32895;DHT22;19251;49.484;8.260;2023-10-19T15:06:18;20.10;29.40
32895;DHT22;19251;49.484;8.260;2023-10-19T15:11:20;20.10;29.20
32895;DHT22;19251;49.484;8.260;2023-10-19T15:16:24;20.10;29.20
32895;DHT22;19251;49.484;8.260;2023-10-19T15:21:26;20.20;29.20
32895;DHT22;19251;49.484;8.260;2023-10-19T15:26:30;20.20;29.10
32895;DHT22;19251;49.484;8.260;2023-10-19T15:31:32;20.20;28.90
32895;DHT22;19251;49.484;8.260;2023-10-19T15:36:34;20.20;28.70
32895;DHT22;19251;49.484;8.260;2023-10-19T15:41:36;20.20;28.60
32895;DHT22;19251;49.484;8.260;2023-10-19T15:46:38;20.10;28.60
32895;DHT22;19251;49.484;8.260;2023-10-19T15:51:41;20.00;28.60
32895;DHT22;19251;49.484;8.260;2023-10-19T15:56:44;19.90;28.70
32895;DHT22;19251;49.484;8.260;2023-10-19T16:01:46;19.80;28.60
32895;DHT22;19251;49.484;8.260;2023-10-19T16:06:49;19.70;28.60
32895;DHT22;19251;49.484;8.260;2023-10-19T16:11:52;19.60;28.80
32895;DHT22;19251;49.484;8.260;2023-10-19T16:16:54;19.60;28.80
32895;DHT22;19251;49.484;8.260;2023-10-19T16:21:59;19.50;28.90
32895;DHT22;19251;49.484;8.260;2023-10-19T16:27:01;19.50;28.90
32895;DHT22;19251;49.484;8.260;2023-10-19T16:32:04;19.40;28.90
32895;DHT22;19251;49.484;8.260;2023-10-19T16:42:10;19.30;29.00
32895;DHT22;19251;49.484;8.260;2023-10-19T16:47:13;19.30;29.00
32895;DHT22;19251;49.484;8.260;2023-10-19T16:52:15;19.30;29.00
32895;DHT22;19251;49.484;8.260;2023-10-19T16:57:17;19.20;29.00
32895;DHT22;19251;49.484;8.260;2023-10-19T17:02:20;19.00;29.20
32895;DHT22;19251;49.484;8.260;2023-10-19T17:07:22;19.00;29.20
32895;DHT22;19251;49.484;8.260;2023-10-19T17:12:25;19.10;29.20
32895;DHT22;19251;49.484;8.260;2023-10-19T17:22:30;19.10;29.60
32895;DHT22;19251;49.484;8.260;2023-10-19T17:27:33;18.90;29.70
32895;DHT22;19251;49.484;8.260;2023-10-19T17:32:35;18.90;30.30
32895;DHT22;19251;49.484;8.260;2023-10-19T17:58:05;19.20;32.60
32895;DHT22;19251;49.484;8.260;2023-10-19T18:03:07;18.70;30.00
32895;DHT22;19251;49.484;8.260;2023-10-19T18:08:11;18.80;29.80
32895;DHT22;19251;49.484;8.260;2023-10-19T18:13:13;18.50;30.70
32895;DHT22;19251;49.484;8.260;2023-10-19T18:18:16;18.80;29.90
32895;DHT22;19251;49.484;8.260;2023-10-19T18:23:21;18.90;30.00
32895;DHT22;19251;49.484;8.260;2023-10-19T18:28:24;18.80;29.80
32895;DHT22;19251;49.484;8.260;2023-10-19T18:33:26;18.80;29.80
32895;DHT22;19251;49.484;8.260;2023-10-19T18:38:34;18.80;29.80
32895;DHT22;19251;49.484;8.260;2023-10-19T18:48:39;18.80;29.90
32895;DHT22;19251;49.484;8.260;2023-10-19T18:53:42;18.80;30.00
32895;DHT22;19251;49.484;8.260;2023-10-19T18:58:45;18.80;30.00
32895;DHT22;19251;49.484;8.260;2023-10-19T19:03:47;18.80;30.00
32895;DHT22;19251;49.484;8.260;2023-10-19T19:08:49;18.80;30.10
32895;DHT22;19251;49.484;8.260;2023-10-19T19:13:51;18.80;30.20
32895;DHT22;19251;49.484;8.260;2023-10-19T19:18:54;18.80;30.10
32895;DHT22;19251;49.484;8.260;2023-10-19T19:23:56;18.80;30.20
32895;DHT22;19251;49.484;8.260;2023-10-19T19:28:59;18.90;30.50
32895;DHT22;19251;49.484;8.260;2023-10-19T19:34:02;18.80;30.60
32895;DHT22;19251;49.484;8.260;2023-10-19T19:44:09;18.90;30.60
32895;DHT22;19251;49.484;8.260;2023-10-19T19:49:12;18.90;30.40
32895;DHT22;19251;49.484;8.260;2023-10-19T19:54:16;18.90;30.40
32895;DHT22;19251;49.484;8.260;2023-10-19T19:59:18;18.90;30.60
32895;DHT22;19251;49.484;8.260;2023-10-19T20:09:26;18.90;30.70
32895;DHT22;19251;49.484;8.260;2023-10-19T20:14:28;18.80;31.00
32895;DHT22;19251;49.484;8.260;2023-10-19T20:24:32;18.90;31.10
32895;DHT22;19251;49.484;8.260;2023-10-19T20:34:38;18.80;30.90
32895;DHT22;19251;49.484;8.260;2023-10-19T20:44:42;16.00;28.70
32895;DHT22;19251;49.484;8.260;2023-10-19T20:49:45;18.90;31.10
32895;DHT22;19251;49.484;8.260;2023-10-19T20:54:47;18.80;31.20
32895;DHT22;19251;49.484;8.260;2023-10-19T21:04:52;18.90;31.20
32895;DHT22;19251;49.484;8.260;2023-10-19T21:09:55;18.80;31.20
32895;DHT22;19251;49.484;8.260;2023-10-19T21:20:00;18.80;31.30
32895;DHT22;19251;49.484;8.260;2023-10-19T21:25:03;18.80;31.20
32895;DHT22;19251;49.484;8.260;2023-10-19T21:30:07;18.80;31.20
32895;DHT22;19251;49.484;8.260;2023-10-19T21:40:14;18.80;31.80
32895;DHT22;19251;49.484;8.260;2023-10-19T21:45:16;18.70;31.40
32895;DHT22;19251;49.484;8.260;2023-10-19T21:50:19;18.70;31.60
32895;DHT22;19251;49.484;8.260;2023-10-19T21:55:21;18.70;31.50
32895;DHT22;19251;49.484;8.260;2023-10-19T22:00:23;18.70;31.50
32895;DHT22;19251;49.484;8.260;2023-10-19T22:05:31;18.70;31.40
32895;DHT22;19251;49.484;8.260;2023-10-19T22:15:36;18.70;31.30
32895;DHT22;19251;49.484;8.260;2023-10-19T22:25:42;18.60;31.00
32895;DHT22;19251;49.484;8.260;2023-10-19T22:30:44;18.60;30.90
32895;DHT22;19251;49.484;8.260;2023-10-19T22:40:52;18.50;30.70
32895;DHT22;19251;49.484;8.260;2023-10-19T22:46:03;18.50;30.70
32895;DHT22;19251;49.484;8.260;2023-10-19T22:51:06;18.60;31.60
32895;DHT22;19251;49.484;8.260;2023-10-19T22:56:08;18.40;30.70
32895;DHT22;19251;49.484;8.260;2023-10-19T23:01:10;18.40;30.70
32895;DHT22;19251;49.484;8.260;2023-10-19T23:06:15;18.40;30.70
32895;DHT22;19251;49.484;8.260;2023-10-19T23:11:17;18.40;30.90
32895;DHT22;19251;49.484;8.260;2023-10-19T23:16:20;18.30;31.00
32895;DHT22;19251;49.484;8.260;2023-10-19T23:21:25;18.30;31.00
32895;DHT22;19251;49.484;8.260;2023-10-19T23:26:38;18.20;30.80
32895;DHT22;19251;49.484;8.260;2023-10-19T23:31:40;18.20;30.90
32895;DHT22;19251;49.484;8.260;2023-10-19T23:41:46;18.10;30.90
32895;DHT22;19251;49.484;8.260;2023-10-19T23:46:48;18.10;30.80
32895;DHT22;19251;49.484;8.260;2023-10-19T23:51:50;18.10;30.80
32895;DHT22;19251;49.484;8.260;2023-10-19T23:56:52;18.00;30.70
